Time;durP1;ratioP1;P1;durP2;ratioP2;P2;SDS_P1;SDS_P2;PMS_P1;PMS_P2;Temp;Humidity;BMP_temperature;BMP_pressure;BME280_temperature;BME280_humidity;BME280_pressure;Samples;Min_cycle;Max_cycle;Signal;HPM_P1;HPM_P2
2021/06/15 00:02:25;;;;;;;8.67;5.43;;;;;;;16.76;71.19;101126.11;124955;1093;64262;-76
2021/06/15 00:04:52;;;;;;;9.10;5.17;;;;;;;16.73;70.96;101131.06;124885;1093;64315;-77
2021/06/15 00:07:19;;;;;;;11.27;5.37;;;;;;;16.68;71.13;101129.83;124931;1093;64298;-77
2021/06/15 00:09:46;;;;;;;11.77;5.77;;;;;;;16.66;71.26;101134.56;124918;1093;64302;-77
2021/06/15 00:12:14;;;;;;;12.10;5.25;;;;;;;16.64;71.96;101133.94;124759;1092;64349;-76
2021/06/15 00:14:43;;;;;;;10.83;5.10;;;;;;;16.62;71.86;101138.67;124795;1093;64279;-76
2021/06/15 00:17:11;;;;;;;6.50;4.37;;;;;;;16.61;72.89;101139.69;124926;1093;64264;-76
2021/06/15 00:19:38;;;;;;;11.10;5.73;;;;;;;16.61;72.72;101139.69;124868;1093;64283;-76
2021/06/15 00:22:05;;;;;;;7.60;4.67;;;;;;;16.61;72.98;101142.37;124713;1093;64304;-77
2021/06/15 00:24:32;;;;;;;9.10;4.87;;;;;;;16.58;73.40;101144.65;124853;1092;64323;-76
2021/06/15 00:26:59;;;;;;;12.07;6.23;;;;;;;16.53;73.06;101139.88;124747;1092;64374;-76
2021/06/15 00:29:26;;;;;;;10.73;5.93;;;;;;;16.52;73.29;101138.24;124732;1093;64307;-76
2021/06/15 00:31:53;;;;;;;9.63;5.40;;;;;;;16.50;73.09;101140.30;124738;1093;64396;-76
2021/06/15 00:34:21;;;;;;;14.33;5.63;;;;;;;16.49;72.97;101138.63;124936;1093;64211;-76
2021/06/15 00:36:48;;;;;;;9.83;5.47;;;;;;;16.48;73.05;101140.49;124976;1093;64312;-77
2021/06/15 00:39:15;;;;;;;8.93;4.90;;;;;;;16.48;73.40;101145.03;124794;1093;64234;-78
2021/06/15 00:41:42;;;;;;;10.57;4.87;;;;;;;16.46;73.24;101142.55;124934;1093;64290;-80
2021/06/15 00:44:10;;;;;;;10.57;4.30;;;;;;;16.45;73.52;101135.55;125189;1092;64504;-80
2021/06/15 00:46:37;;;;;;;7.67;5.30;;;;;;;16.42;73.45;101137.80;125111;1092;64274;-79
2021/06/15 00:49:06;;;;;;;8.77;5.40;;;;;;;16.39;73.54;101138.22;125865;1093;64635;-79
2021/06/15 00:51:34;;;;;;;9.93;6.50;;;;;;;16.35;73.50;101137.79;125760;1093;64651;-83
2021/06/15 00:54:01;;;;;;;11.30;5.33;;;;;;;16.33;74.08;101139.84;124940;1093;64304;-77
2021/06/15 00:56:28;;;;;;;9.60;5.57;;;;;;;16.32;74.05;101138.21;124794;1093;64298;-77
2021/06/15 00:58:56;;;;;;;10.80;5.80;;;;;;;16.28;73.87;101132.42;124794;1093;64272;-77
2021/06/15 01:01:23;;;;;;;9.80;4.65;;;;;;;16.26;74.54;101131.80;124719;1093;64500;-77
2021/06/15 01:03:51;;;;;;;12.53;5.70;;;;;;;16.22;74.33;101143.94;124959;1093;64211;-79
2021/06/15 01:06:47;;;;;;;9.83;6.50;;;;;;;16.18;74.50;101148.04;124835;1092;64314;-77
2021/06/15 01:09:21;;;;;;;9.53;6.10;;;;;;;16.13;74.64;101145.15;124815;1093;64830;-76
2021/06/15 01:12:00;;;;;;;11.17;6.27;;;;;;;16.09;74.91;101146.58;125019;1092;64339;-76
2021/06/15 01:14:31;;;;;;;10.95;6.60;;;;;;;16.07;75.14;101143.27;124952;1093;64312;-76
2021/06/15 01:17:39;;;;;;;10.90;5.60;;;;;;;16.06;75.06;101149.63;124990;1093;64314;-77
2021/06/15 01:20:15;;;;;;;11.00;6.90;;;;;;;16.02;75.23;101149.23;124679;1096;64406;-77
2021/06/15 01:23:12;;;;;;;10.40;7.00;;;;;;;16.01;75.37;101134.19;124761;1093;64359;-77
2021/06/15 01:26:03;;;;;;;10.83;6.37;;;;;;;16.01;75.74;101141.39;124932;1093;64285;-78
2021/06/15 01:29:04;;;;;;;9.57;6.73;;;;;;;15.99;75.77;101135.41;124907;1093;64310;-78
2021/06/15 01:31:39;;;;;;;10.75;6.45;;;;;;;15.95;76.10;101140.33;124908;1093;64288;-76
2021/06/15 01:34:15;;;;;;;14.33;6.63;;;;;;;15.92;75.90;101138.06;124949;1093;64284;-77
2021/06/15 01:37:21;;;;;;;10.63;6.33;;;;;;;15.90;76.00;101132.91;124959;1093;64374;-78
2021/06/15 01:39:53;;;;;;;;;;;;;;;15.88;76.20;101147.52;124958;1093;64377;-78
2021/06/15 01:42:31;;;;;;;11.53;7.37;;;;;;;15.85;76.44;101138.04;124738;1093;65762;-76
2021/06/15 01:45:24;;;;;;;11.65;6.90;;;;;;;15.83;76.10;101141.91;124979;1093;64281;-77
2021/06/15 01:48:16;;;;;;;11.60;6.53;;;;;;;15.82;76.43;101143.77;124922;1093;64284;-76
2021/06/15 01:50:45;;;;;;;14.07;6.70;;;;;;;15.81;76.62;101144.81;124864;1092;64282;-77
2021/06/15 01:53:16;;;;;;;12.40;7.03;;;;;;;15.79;76.73;101144.18;125020;1092;64940;-76
2021/06/15 01:55:53;;;;;;;11.60;7.07;;;;;;;15.77;76.73;101143.55;124814;1093;64229;-77
2021/06/15 01:58:27;;;;;;;12.03;7.73;;;;;;;15.74;76.94;101154.63;124879;1093;64313;-77
2021/06/15 02:00:56;;;;;;;11.90;6.08;;;;;;;15.72;76.73;101158.53;124915;1092;64208;-78
2021/06/15 02:03:26;;;;;;;13.33;6.90;;;;;;;15.68;76.95;101161.59;124936;1092;64371;-77
2021/06/15 02:05:56;;;;;;;10.03;6.70;;;;;;;15.68;77.25;101160.73;124729;1093;65415;-77
2021/06/15 02:08:36;;;;;;;10.40;7.50;;;;;;;15.65;77.37;101169.98;124810;1093;64949;-76
2021/06/15 02:11:04;;;;;;;12.47;7.13;;;;;;;15.63;77.75;101171.21;124805;1093;64234;-77
2021/06/15 02:13:37;;;;;;;10.45;5.85;;;;;;;15.60;78.44;101167.09;124828;1093;64214;-77
2021/06/15 02:16:07;;;;;;;9.40;6.33;;;;;;;15.57;78.37;101156.77;125029;1092;64208;-76
2021/06/15 02:18:36;;;;;;;13.27;7.20;;;;;;;15.53;78.64;101163.53;124991;1093;64371;-78
2021/06/15 02:21:08;;;;;;;11.37;6.60;;;;;;;15.50;78.66;101161.26;124679;1092;64431;-76
2021/06/15 02:23:36;;;;;;;13.70;7.70;;;;;;;15.47;78.49;101173.17;124842;1093;64336;-76
2021/06/15 02:26:08;;;;;;;18.67;9.83;;;;;;;15.44;79.92;101162.86;124894;1093;64377;-76
2021/06/15 02:28:37;;;;;;;12.93;7.70;;;;;;;15.42;79.24;101180.13;125058;1092;64349;-78
2021/06/15 02:31:09;;;;;;;13.03;8.33;;;;;;;15.38;79.04;101179.67;125093;1092;64400;-77
2021/06/15 02:33:42;;;;;;;13.33;8.50;;;;;;;15.37;79.13;101182.56;124912;1093;64281;-78
2021/06/15 02:36:14;;;;;;;14.47;8.27;;;;;;;15.35;78.95;101189.95;124628;1093;64300;-76
2021/06/15 02:38:55;;;;;;;11.10;6.63;;;;;;;15.31;79.54;101194.84;125163;1093;64181;-76
2021/06/15 02:41:25;;;;;;;10.63;8.30;;;;;;;15.28;79.78;101189.91;124788;1093;65664;-75
2021/06/15 02:43:57;;;;;;;11.47;8.20;;;;;;;15.24;80.23;101192.13;124863;1093;64339;-75
2021/06/15 02:46:28;;;;;;;14.13;8.40;;;;;;;15.21;80.59;101205.04;124768;1093;64371;-76
2021/06/15 02:48:59;;;;;;;14.87;8.80;;;;;;;15.17;80.77;101201.09;124926;1093;64310;-76
2021/06/15 02:51:29;;;;;;;11.75;7.10;;;;;;;15.14;81.42;101201.50;124933;1093;64192;-76
2021/06/15 02:54:17;;;;;;;11.40;8.00;;;;;;;15.11;82.09;101205.39;124954;1093;64270;-77
2021/06/15 02:56:48;;;;;;;11.60;7.00;;;;;;;15.07;82.73;101204.94;124700;1092;64269;-75
2021/06/15 02:59:15;;;;;;;11.55;6.80;;;;;;;15.04;82.48;101202.63;124911;1092;64286;-76
2021/06/15 03:01:50;;;;;;;17.33;8.83;;;;;;;15.01;82.81;101205.70;124715;1092;64298;-76
2021/06/15 03:04:17;;;;;;;15.85;9.85;;;;;;;14.98;83.41;101206.09;124867;1092;64282;-76
2021/06/15 03:06:45;;;;;;;10.47;6.83;;;;;;;14.95;84.71;101206.47;124853;1093;64383;-76
2021/06/15 03:09:14;;;;;;;21.57;10.83;;;;;;;14.93;84.75;101208.50;124943;1091;64223;-77
2021/06/15 03:11:47;;;;;;;11.87;7.03;;;;;;;14.91;84.81;101215.88;124816;1093;64259;-76
2021/06/15 03:14:21;;;;;;;16.57;10.33;;;;;;;14.89;84.45;101212.56;126603;1091;64137;-76
2021/06/15 03:16:51;;;;;;;17.65;9.68;;;;;;;14.87;84.52;101212.75;124892;1093;64282;-76
2021/06/15 03:19:22;;;;;;;13.03;9.27;;;;;;;14.87;84.30;101215.42;124934;1093;64303;-76
2021/06/15 03:21:59;;;;;;;13.57;8.17;;;;;;;14.88;85.27;101217.09;125038;1093;64965;-76
2021/06/15 03:24:27;;;;;;;16.43;10.47;;;;;;;14.86;84.70;101219.13;124914;1093;64459;-77
2021/06/15 03:27:10;;;;;;;17.67;10.50;;;;;;;14.86;84.77;101228.98;124910;1093;64304;-78
2021/06/15 03:29:40;;;;;;;18.13;10.80;;;;;;;14.86;84.59;101212.95;124901;1092;64301;-76
2021/06/15 03:32:11;;;;;;;14.17;9.73;;;;;;;14.85;85.71;101213.96;124969;1093;64445;-77
2021/06/15 03:34:49;;;;;;;15.80;11.90;;;;;;;14.84;85.24;101212.32;125117;1092;64276;-77
2021/06/15 03:37:21;;;;;;;17.50;9.40;;;;;;;14.84;85.95;101215.81;124969;1093;64293;-79
2021/06/15 03:39:50;;;;;;;16.73;9.47;;;;;;;14.82;85.63;101222.37;124875;1093;64178;-77
2021/06/15 03:42:21;;;;;;;15.15;9.25;;;;;;;14.81;85.94;101228.71;124977;1093;64230;-77
2021/06/15 03:45:03;;;;;;;15.43;8.47;;;;;;;14.79;86.05;101230.74;124885;1093;64371;-77
2021/06/15 03:47:34;;;;;;;17.37;10.83;;;;;;;14.78;86.47;101231.77;124998;1093;64284;-76
2021/06/15 03:50:04;;;;;;;17.57;10.97;;;;;;;14.77;86.27;101230.95;124885;1093;64310;-76
2021/06/15 03:52:36;;;;;;;20.10;10.47;;;;;;;14.77;86.39;101238.12;125130;1093;64288;-80
2021/06/15 03:55:06;;;;;;;19.85;9.70;;;;;;;14.78;86.88;101239.79;125010;1092;64211;-76
2021/06/15 03:57:41;;;;;;;19.90;11.50;;;;;;;14.76;86.69;101236.48;124910;1093;64239;-76
2021/06/15 04:00:14;;;;;;;22.67;10.93;;;;;;;14.75;86.94;101235.66;125226;1093;64323;-77
2021/06/15 04:02:45;;;;;;;21.07;11.10;;;;;;;14.76;87.24;101234.63;124810;1093;64293;-78
2021/06/15 04:05:15;;;;;;;18.87;12.13;;;;;;;14.78;86.90;101237.94;124902;1093;64336;-77
2021/06/15 04:07:45;;;;;;;16.20;9.33;;;;;;;14.81;87.12;101236.72;124856;1092;64348;-77
2021/06/15 04:10:13;;;;;;;17.23;9.43;;;;;;;14.86;87.27;101239.67;124878;1093;64406;-78
2021/06/15 04:12:41;;;;;;;17.80;11.03;;;;;;;14.86;87.71;101245.02;124860;1093;64290;-76
2021/06/15 04:15:12;;;;;;;21.67;10.97;;;;;;;14.90;87.34;101246.30;124846;1093;64380;-77
2021/06/15 04:17:45;;;;;;;20.47;10.87;;;;;;;14.92;87.17;101238.91;125005;1093;64300;-78
2021/06/15 04:20:14;;;;;;;17.27;9.57;;;;;;;14.98;86.66;101242.66;124969;1093;64284;-76
2021/06/15 04:22:46;;;;;;;23.20;10.60;;;;;;;15.02;87.46;101250.09;125096;1093;65489;-76
2021/06/15 04:25:18;;;;;;;17.40;11.63;;;;;;;15.07;87.16;101258.38;124903;1093;64326;-78
2021/06/15 04:27:46;;;;;;;22.37;13.93;;;;;;;15.17;87.07;101267.91;124679;1092;64395;-75
2021/06/15 04:30:16;;;;;;;20.60;12.70;;;;;;;15.22;86.82;101260.16;124885;1093;65509;-77
2021/06/15 04:32:56;;;;;;;19.73;12.33;;;;;;;15.30;86.48;101270.73;124764;1093;64203;-76
2021/06/15 04:35:33;;;;;;;17.97;10.27;;;;;;;15.38;86.27;101259.88;124927;1093;64442;-77
2021/06/15 04:38:08;;;;;;;18.47;10.50;;;;;;;15.49;86.17;101267.39;125053;1093;64298;-76
2021/06/15 04:40:42;;;;;;;17.93;9.57;;;;;;;15.59;85.68;101272.39;124982;1093;64300;-77
2021/06/15 04:43:47;;;;;;;15.73;9.50;;;;;;;15.72;85.61;101285.06;124889;1093;64289;-78
2021/06/15 04:46:22;;;;;;;16.90;9.17;;;;;;;15.80;84.92;101274.22;124684;1093;64314;-76
2021/06/15 04:48:55;;;;;;;11.35;6.85;;;;;;;15.89;84.74;101278.39;125016;1092;64268;-77
2021/06/15 04:51:22;;;;;;;16.60;8.57;;;;;;;15.99;84.28;101277.23;124964;1093;64284;-78
2021/06/15 04:53:58;;;;;;;22.33;11.43;;;;;;;16.05;84.11;101277.27;124771;1093;64214;-78
2021/06/15 04:56:29;;;;;;;21.07;10.40;;;;;;;16.12;83.93;101282.66;124886;1093;64265;-76
2021/06/15 04:59:01;;;;;;;17.97;11.03;;;;;;;16.21;83.85;101281.47;124866;1093;64382;-77
2021/06/15 05:01:29;;;;;;;24.27;11.23;;;;;;;16.28;83.03;101276.99;124633;1093;64295;-76
2021/06/15 05:03:58;;;;;;;11.90;7.50;;;;;;;16.32;82.97;101272.08;124977;1093;64281;-77
2021/06/15 05:06:26;;;;;;;17.20;9.65;;;;;;;16.34;82.53;101279.89;124954;1091;64300;-78
2021/06/15 05:08:58;;;;;;;17.47;9.97;;;;;;;16.38;82.47;101275.79;124878;1093;64287;-78
2021/06/15 05:11:28;;;;;;;26.77;12.70;;;;;;;16.43;82.37;101282.21;124755;1092;64362;-77
2021/06/15 05:13:59;;;;;;;15.80;10.87;;;;;;;16.51;82.21;101270.48;124947;1092;64214;-77
2021/06/15 05:16:30;;;;;;;18.87;11.83;;;;;;;16.65;81.84;101276.73;125840;1092;64314;-79
2021/06/15 05:18:58;;;;;;;25.20;11.10;;;;;;;16.75;81.62;101274.50;125052;1093;64309;-75
2021/06/15 05:21:33;;;;;;;13.30;9.03;;;;;;;16.83;81.09;101273.50;124755;1093;64285;-74
2021/06/15 05:24:09;;;;;;;9.80;5.80;;;;;;;16.87;80.31;101280.11;124806;1091;64252;-75
2021/06/15 05:26:36;;;;;;;22.33;13.13;;;;;;;16.90;80.02;101285.09;124787;1093;64380;-76
2021/06/15 05:29:03;;;;;;;17.47;9.30;;;;;;;16.87;79.58;101290.83;124671;1093;64313;-76
2021/06/15 05:31:30;;;;;;;15.40;8.37;;;;;;;16.89;79.71;101291.45;124799;1093;64285;-74
2021/06/15 05:33:57;;;;;;;13.87;8.70;;;;;;;16.93;79.98;101284.67;124870;1093;64285;-74
2021/06/15 05:36:24;;;;;;;13.20;7.73;;;;;;;17.00;79.07;101284.68;124873;1093;64288;-75
2021/06/15 05:38:52;;;;;;;15.00;9.33;;;;;;;17.06;78.97;101292.73;124803;1092;64402;-73
2021/06/15 05:41:19;;;;;;;17.47;11.27;;;;;;;17.16;78.67;101288.84;124903;1092;64254;-73
2021/06/15 05:43:46;;;;;;;13.63;9.33;;;;;;;17.23;78.46;101295.85;124893;1092;64312;-75
2021/06/15 05:46:13;;;;;;;19.17;10.97;;;;;;;17.30;78.39;101306.61;124909;1093;64281;-74
2021/06/15 05:48:45;;;;;;;18.07;9.50;;;;;;;17.32;77.76;101310.73;124714;1093;64310;-75
2021/06/15 05:51:13;;;;;;;19.67;9.00;;;;;;;17.30;77.28;101317.34;124734;1093;64380;-73
2021/06/15 05:53:40;;;;;;;19.03;9.43;;;;;;;17.33;77.61;101316.91;124858;1093;64302;-74
2021/06/15 05:56:07;;;;;;;13.47;8.27;;;;;;;17.35;77.48;101314.04;124885;1093;64283;-73
2021/06/15 05:58:35;;;;;;;18.03;10.50;;;;;;;17.38;77.21;101305.57;124648;1092;64894;-74
2021/06/15 06:01:02;;;;;;;20.70;10.10;;;;;;;17.37;77.48;101312.80;124808;1093;64242;-74
2021/06/15 06:03:37;;;;;;;11.83;7.17;;;;;;;17.39;77.40;101316.10;124727;1093;64288;-75
2021/06/15 06:08:51;;;;;;;20.33;9.70;;;;;;;17.46;77.42;101322.28;124788;1092;64303;-75
2021/06/15 06:11:18;;;;;;;12.50;7.07;;;;;;;17.51;76.62;101319.83;125864;1092;64308;-75
2021/06/15 06:13:46;;;;;;;14.47;8.63;;;;;;;17.56;76.94;101331.80;124704;1093;64326;-75
2021/06/15 06:16:14;;;;;;;16.27;9.30;;;;;;;17.57;75.97;101331.58;125035;1093;64288;-74
2021/06/15 06:18:41;;;;;;;12.97;8.40;;;;;;;17.66;76.25;101333.05;125033;1093;64286;-73
2021/06/15 06:21:10;;;;;;;14.27;8.07;;;;;;;17.75;76.07;101332.84;124860;1092;64358;-74
2021/06/15 06:23:38;;;;;;;16.27;8.30;;;;;;;17.83;75.82;101335.33;125053;1093;64378;-73
2021/06/15 06:26:05;;;;;;;18.13;7.50;;;;;;;17.90;75.39;101336.98;124885;1093;64282;-75
2021/06/15 06:28:33;;;;;;;15.87;8.00;;;;;;;17.93;74.39;101333.87;124818;1092;65232;-74
2021/06/15 06:31:01;;;;;;;11.70;6.57;;;;;;;17.97;73.46;101344.20;124842;1093;64289;-73
2021/06/15 06:33:28;;;;;;;8.87;6.30;;;;;;;18.04;73.92;101342.33;124877;1093;64988;-73
2021/06/15 06:35:55;;;;;;;11.30;6.70;;;;;;;18.06;73.18;101332.20;124849;1093;64956;-75
2021/06/15 06:38:22;;;;;;;12.43;7.07;;;;;;;18.09;72.60;101337.17;124706;1093;64300;-74
2021/06/15 06:40:49;;;;;;;12.15;6.70;;;;;;;18.08;72.22;101347.06;124874;1093;64393;-74
2021/06/15 06:43:16;;;;;;;13.33;6.97;;;;;;;18.08;72.39;101340.88;125008;1093;64335;-74
2021/06/15 06:45:43;;;;;;;15.57;7.20;;;;;;;18.06;72.09;101342.95;124944;1092;64284;-74
2021/06/15 06:48:11;;;;;;;10.83;6.67;;;;;;;18.10;72.38;101352.23;124944;1093;64284;-74
2021/06/15 06:50:38;;;;;;;11.40;5.37;;;;;;;18.11;71.75;101345.84;124945;1092;64285;-74
2021/06/15 06:53:05;;;;;;;13.37;6.40;;;;;;;18.09;71.51;101343.36;124942;1092;64358;-74
2021/06/15 06:55:33;;;;;;;8.63;5.53;;;;;;;18.11;71.64;101351.22;124778;1093;64323;-74
2021/06/15 06:58:01;;;;;;;6.23;4.13;;;;;;;18.11;70.96;101343.16;124967;1093;64397;-74
2021/06/15 07:00:29;;;;;;;6.97;5.10;;;;;;;18.13;70.78;101343.78;124954;1092;64265;-73
2021/06/15 07:02:56;;;;;;;8.80;4.07;;;;;;;18.15;69.21;101341.72;124951;1093;64300;-74
2021/06/15 07:05:24;;;;;;;10.37;3.83;;;;;;;18.12;68.57;101342.11;125123;1093;64313;-72
2021/06/15 07:07:52;;;;;;;8.63;4.70;;;;;;;18.19;69.07;101347.47;124696;1092;64422;-74
2021/06/15 07:10:20;;;;;;;8.33;3.43;;;;;;;18.23;68.50;101344.15;124962;1092;64262;-73
2021/06/15 07:12:48;;;;;;;12.33;5.07;;;;;;;18.29;68.37;101347.86;125110;1093;64249;-74
2021/06/15 07:15:16;;;;;;;11.20;4.73;;;;;;;18.33;68.35;101338.36;125040;1092;64304;-73
2021/06/15 07:17:43;;;;;;;9.73;3.70;;;;;;;18.43;68.48;101337.92;124893;1092;64224;-72
2021/06/15 07:20:11;;;;;;;10.87;4.23;;;;;;;18.58;68.43;101334.98;124962;1093;64279;-73
2021/06/15 07:22:39;;;;;;;6.05;3.40;;;;;;;18.77;67.90;101335.95;124875;1093;64281;-72
2021/06/15 07:25:07;;;;;;;9.10;4.37;;;;;;;18.93;66.57;101338.16;124889;1092;64209;-73
2021/06/15 07:27:34;;;;;;;8.37;3.57;;;;;;;19.06;66.34;101332.73;124968;1093;64238;-72
2021/06/15 07:30:06;;;;;;;6.50;3.60;;;;;;;19.20;65.21;101333.45;124915;1092;64417;-73
2021/06/15 07:32:33;;;;;;;7.77;3.93;;;;;;;19.27;65.70;101341.48;124987;1093;64307;-75
2021/06/15 07:35:01;;;;;;;7.33;3.57;;;;;;;19.32;64.11;101329.04;124936;1093;64290;-73
2021/06/15 07:37:28;;;;;;;7.30;5.10;;;;;;;19.22;64.00;101331.38;124903;1092;64311;-74
2021/06/15 07:39:55;;;;;;;11.43;5.17;;;;;;;19.08;64.50;101338.72;124875;1092;64268;-74
2021/06/15 07:42:23;;;;;;;8.50;4.27;;;;;;;19.04;65.81;101340.19;124768;1093;64515;-73
2021/06/15 07:44:50;;;;;;;7.30;4.57;;;;;;;19.12;65.56;101349.84;124965;1092;64326;-73
2021/06/15 07:47:17;;;;;;;7.07;3.37;;;;;;;19.12;65.18;101342.59;124905;1092;64246;-72
2021/06/15 07:49:46;;;;;;;11.17;4.73;;;;;;;19.07;65.49;101355.88;124971;1092;64712;-73
2021/06/15 07:52:16;;;;;;;11.00;4.53;;;;;;;19.05;65.61;101360.64;125112;1093;64268;-73
2021/06/15 07:54:43;;;;;;;10.60;5.85;;;;;;;19.05;65.50;101362.52;124874;1092;64439;-73
2021/06/15 07:57:11;;;;;;;9.70;3.90;;;;;;;19.10;65.68;101355.43;124924;1092;64212;-74
2021/06/15 07:59:38;;;;;;;10.53;3.93;;;;;;;19.12;65.15;101358.73;124916;1093;64377;-74
2021/06/15 08:02:05;;;;;;;8.33;3.73;;;;;;;19.18;64.81;101375.88;124909;1093;64292;-73
2021/06/15 08:04:32;;;;;;;8.77;4.37;;;;;;;19.21;64.77;101369.23;124767;1093;64396;-72
2021/06/15 08:07:00;;;;;;;5.23;2.63;;;;;;;19.30;65.14;101373.34;124705;1092;64445;-73
2021/06/15 08:09:27;;;;;;;9.60;4.07;;;;;;;19.37;64.72;101371.42;125046;1093;64304;-73
2021/06/15 08:11:54;;;;;;;9.77;3.53;;;;;;;19.46;64.46;101378.19;124978;1093;64814;-73
2021/06/15 08:14:21;;;;;;;5.70;3.10;;;;;;;19.32;63.46;101371.27;125039;1092;64262;-73
2021/06/15 08:16:48;;;;;;;10.20;3.30;;;;;;;19.15;63.71;101379.02;124818;1092;64295;-73
2021/06/15 08:19:16;;;;;;;6.70;3.37;;;;;;;19.05;64.55;101379.47;124693;1093;64207;-73
2021/06/15 08:21:43;;;;;;;7.67;3.43;;;;;;;19.08;64.81;101384.43;124911;1093;64258;-73
2021/06/15 08:24:14;;;;;;;6.60;3.50;;;;;;;19.17;64.81;101381.47;124786;1092;64336;-73
2021/06/15 08:26:43;;;;;;;6.40;3.27;;;;;;;19.22;64.41;101378.97;124823;1092;64315;-73
2021/06/15 08:29:11;;;;;;;7.10;2.87;;;;;;;19.37;64.16;101379.50;124995;1093;64280;-72
2021/06/15 08:31:38;;;;;;;7.23;2.87;;;;;;;19.59;63.34;101379.14;125009;1093;64406;-73
2021/06/15 08:34:06;;;;;;;6.87;3.40;;;;;;;19.72;62.90;101379.06;124895;1093;64239;-73
2021/06/15 08:36:33;;;;;;;8.57;3.43;;;;;;;19.79;62.49;101374.47;124781;1093;64344;-75
2021/06/15 08:39:04;;;;;;;10.97;3.80;;;;;;;19.94;62.31;101374.96;124711;1093;64291;-74
2021/06/15 08:41:32;;;;;;;7.60;2.53;;;;;;;20.12;60.98;101379.55;124903;1093;64201;-73
2021/06/15 08:44:01;;;;;;;4.37;2.83;;;;;;;20.21;60.72;101379.27;124838;1093;64326;-74
2021/06/15 08:46:28;;;;;;;5.57;1.80;;;;;;;20.38;60.51;101383.05;125035;1092;64246;-74
2021/06/15 08:48:56;;;;;;;8.33;2.70;;;;;;;20.50;58.02;101391.20;124701;1093;64374;-75
2021/06/15 08:51:24;;;;;;;4.65;1.90;;;;;;;20.48;56.13;101391.42;124953;1093;64288;-73
2021/06/15 08:53:53;;;;;;;4.53;1.70;;;;;;;20.54;56.95;101387.02;124823;1092;64285;-74
2021/06/15 08:56:21;;;;;;;7.07;2.00;;;;;;;20.62;57.44;101381.36;124919;1093;66073;-74
2021/06/15 08:59:16;;;;;;;5.83;1.50;;;;;;;20.62;55.81;101384.06;124826;1093;64303;-71
2021/06/15 09:02:07;;;;;;;5.40;1.20;;;;;;;20.56;56.27;101384.92;124965;1093;64377;-74
2021/06/15 09:04:36;;;;;;;3.87;1.50;;;;;;;20.68;56.39;101375.08;124855;1093;64291;-73
2021/06/15 09:07:04;;;;;;;3.93;1.43;;;;;;;20.83;54.91;101373.88;124828;1093;64351;-74
2021/06/15 09:09:47;;;;;;;3.70;1.20;;;;;;;20.95;55.39;101377.42;125173;1093;64314;-74
2021/06/15 09:12:21;;;;;;;4.20;1.23;;;;;;;21.25;55.22;101366.66;124688;1093;64288;-74
2021/06/15 09:14:52;;;;;;;;;;;;;;;21.39;53.81;101369.97;124855;1093;64347;-74
2021/06/15 09:17:26;;;;;;;6.50;1.75;;;;;;;21.44;53.49;101361.21;124973;1093;64288;-74
2021/06/15 09:20:08;;;;;;;6.80;1.77;;;;;;;21.36;53.91;101365.05;125110;1093;64293;-75
2021/06/15 09:22:36;;;;;;;3.80;1.30;;;;;;;21.45;54.43;101371.78;124734;1092;64792;-75
2021/06/15 09:25:06;;;;;;;5.67;1.47;;;;;;;21.41;52.73;101375.15;125041;1093;64970;-75
2021/06/15 09:27:38;;;;;;;5.90;2.60;;;;;;;21.42;53.89;101372.27;125055;1093;64285;-75
2021/06/15 09:30:11;;;;;;;6.05;2.05;;;;;;;21.38;54.51;101387.23;125601;1093;64744;-74
2021/06/15 09:32:44;;;;;;;4.10;1.67;;;;;;;21.37;55.22;101391.79;124927;1093;64313;-73
2021/06/15 09:35:18;;;;;;;9.80;1.73;;;;;;;21.27;54.86;101379.91;124967;1093;64234;-72
2021/06/15 09:37:56;;;;;;;5.57;1.80;;;;;;;21.25;54.25;101382.86;124932;1093;64204;-73
2021/06/15 09:40:28;;;;;;;4.53;2.00;;;;;;;21.23;54.74;101378.72;124950;1093;64320;-75
2021/06/15 09:43:05;;;;;;;7.60;1.80;;;;;;;21.37;54.24;101380.17;125113;1093;64255;-75
2021/06/15 09:45:33;;;;;;;7.33;2.57;;;;;;;21.45;54.62;101371.78;124974;1093;64268;-74
2021/06/15 09:48:28;;;;;;;6.83;3.80;;;;;;;21.61;53.80;101372.98;125090;1093;64452;-74
2021/06/15 09:51:00;;;;;;;4.95;2.38;;;;;;;21.75;53.20;101370.91;124935;1093;64288;-73
2021/06/15 09:53:30;;;;;;;3.80;2.00;;;;;;;21.91;52.47;101375.63;124997;1093;64284;-72
2021/06/15 09:56:00;;;;;;;6.23;1.80;;;;;;;21.80;49.68;101379.12;124975;1093;64376;-73
2021/06/15 09:58:52;;;;;;;5.13;1.50;;;;;;;21.82;50.59;101371.61;125213;1092;64240;-72
2021/06/15 10:01:36;;;;;;;6.17;1.67;;;;;;;21.64;50.08;101372.53;125143;1093;64320;-73
2021/06/15 10:04:17;;;;;;;6.67;1.90;;;;;;;21.49;50.69;101372.97;125092;1092;64257;-74
2021/06/15 10:06:52;;;;;;;4.73;1.57;;;;;;;21.29;50.85;101381.31;125073;1093;64304;-73
2021/06/15 10:09:31;;;;;;;5.10;1.27;;;;;;;21.25;51.38;101374.76;124975;1092;64201;-73
2021/06/15 10:12:01;;;;;;;4.00;1.55;;;;;;;21.32;52.60;101371.96;124822;1093;65572;-73
2021/06/15 10:14:28;;;;;;;5.95;1.95;;;;;;;21.53;53.00;101363.36;125132;1092;64259;-73
2021/06/15 10:16:57;;;;;;;10.33;2.40;;;;;;;21.53;51.25;101360.66;125083;1093;64206;-74
2021/06/15 10:19:25;;;;;;;4.87;1.50;;;;;;;21.66;51.69;101358.81;125526;1093;64320;-74
2021/06/15 10:21:54;;;;;;;12.60;5.27;;;;;;;21.98;51.63;101353.89;125465;1093;64289;-74
2021/06/15 10:24:23;;;;;;;6.95;2.05;;;;;;;22.27;51.31;101356.72;125350;1093;64235;-74
2021/06/15 10:27:09;;;;;;;7.60;1.70;;;;;;;22.60;50.62;101356.89;124861;1092;64396;-73
2021/06/15 10:29:38;;;;;;;13.33;4.40;;;;;;;22.73;49.04;101353.09;125101;1093;64781;-73
2021/06/15 10:32:17;;;;;;;3.60;1.40;;;;;;;22.77;48.52;101362.38;125068;1093;64297;-73
2021/06/15 10:34:46;;;;;;;10.40;4.97;;;;;;;22.83;47.68;101355.20;124954;1093;64300;-73
2021/06/15 10:37:31;;;;;;;2.53;0.90;;;;;;;22.86;46.11;101351.18;124815;1093;64381;-73
2021/06/15 10:40:14;;;;;;;6.27;1.70;;;;;;;22.71;46.42;101357.92;124822;1092;64454;-74
2021/06/15 10:43:02;;;;;;;5.53;2.77;;;;;;;22.75;46.67;101353.68;124889;1092;64272;-74
2021/06/15 10:45:30;;;;;;;3.60;1.10;;;;;;;22.75;45.81;101355.57;124616;1093;64422;-74
2021/06/15 10:48:06;;;;;;;5.57;1.50;;;;;;;22.58;46.12;101353.61;124842;1092;64303;-75
2021/06/15 10:50:46;;;;;;;9.40;2.90;;;;;;;22.59;46.41;101349.05;124918;1092;64396;-74
2021/06/15 10:53:15;;;;;;;4.00;1.30;;;;;;;22.60;47.04;101346.08;125031;1093;64445;-74
2021/06/15 10:55:46;;;;;;;5.80;1.60;;;;;;;22.62;46.88;101337.73;124958;1093;64211;-75
2021/06/15 10:58:14;;;;;;;6.90;1.10;;;;;;;22.59;46.22;101338.23;124854;1093;64377;-73
2021/06/15 11:00:53;;;;;;;4.23;1.40;;;;;;;22.59;46.99;101343.64;124960;1093;64231;-74
2021/06/15 11:03:23;;;;;;;5.43;1.10;;;;;;;22.68;47.99;101335.97;124890;1092;64214;-74
2021/06/15 11:05:55;;;;;;;5.43;1.33;;;;;;;22.82;46.65;101326.48;124854;1093;64364;-73
2021/06/15 11:08:31;;;;;;;3.45;0.95;;;;;;;22.93;46.21;101316.67;124708;1093;64307;-74
2021/06/15 11:11:02;;;;;;;3.60;1.07;;;;;;;22.84;45.37;101334.37;124852;1093;64792;-73
2021/06/15 11:13:46;;;;;;;5.23;1.50;;;;;;;22.84;45.68;101328.95;124906;1092;64288;-72
2021/06/15 11:16:37;;;;;;;3.67;1.07;;;;;;;22.89;45.24;101326.36;124855;1093;64236;-73
2021/06/15 11:19:14;;;;;;;5.77;1.40;;;;;;;;;;124944;1093;64304;-74
2021/06/15 11:21:43;;;;;;;4.77;1.33;;;;;;;22.96;44.22;101329.73;124844;1093;64323;-73
2021/06/15 11:24:21;;;;;;;4.17;1.40;;;;;;;23.02;45.51;101317.98;124841;1093;64358;-73
2021/06/15 11:26:49;;;;;;;4.20;1.03;;;;;;;23.16;44.66;101327.44;124885;1093;64950;-73
2021/06/15 11:29:38;;;;;;;5.53;1.10;;;;;;;23.34;43.94;101322.87;124855;1092;64284;-74
2021/06/15 11:32:21;;;;;;;7.10;1.00;;;;;;;23.48;41.94;101334.19;124614;1093;64359;-75
2021/06/15 11:34:54;;;;;;;5.73;1.03;;;;;;;23.56;42.89;101337.30;124818;1093;64409;-74
2021/06/15 11:37:23;;;;;;;4.15;1.25;;;;;;;23.44;41.16;101328.45;124809;1093;64310;-74